createdAt,value
2019-04-01T00:00:53.108Z,9.20
2019-04-01T00:03:22.552Z,9.10
2019-04-01T00:05:51.974Z,9.10
2019-04-01T00:08:21.463Z,9.00
2019-04-01T00:10:50.840Z,9.00
2019-04-01T00:13:20.296Z,9.00
2019-04-01T00:15:49.670Z,9.00
2019-04-01T00:18:19.053Z,8.90
2019-04-01T00:20:48.413Z,8.90
2019-04-01T00:23:17.799Z,8.90
2019-04-01T00:25:47.204Z,8.90
2019-04-01T00:28:16.592Z,8.90
2019-04-01T00:30:46.019Z,8.80
2019-04-01T00:33:15.401Z,8.80
2019-04-01T00:35:44.785Z,8.70
2019-04-01T00:38:14.151Z,8.70
2019-04-01T00:40:45.173Z,8.90
2019-04-01T00:43:19.116Z,8.80
2019-04-01T00:45:50.167Z,8.70
2019-04-01T00:48:19.553Z,8.70
2019-04-01T00:50:49.001Z,8.70
2019-04-01T00:53:18.435Z,8.60
2019-04-01T00:55:47.865Z,8.50
2019-04-01T00:58:17.353Z,8.50
2019-04-01T01:00:47.803Z,8.40
2019-04-01T01:03:17.247Z,8.30
2019-04-01T01:05:46.633Z,8.40
2019-04-01T01:08:16.422Z,8.40
2019-04-01T01:10:45.945Z,8.30
2019-04-01T01:13:15.459Z,8.30
2019-04-01T01:15:44.834Z,8.20
2019-04-01T01:18:14.601Z,8.10
2019-04-01T01:20:44.028Z,8.10
2019-04-01T01:23:13.413Z,8.10
2019-04-01T01:25:42.831Z,8.00
2019-04-01T01:28:12.254Z,7.90
2019-04-01T01:30:41.609Z,7.80
2019-04-01T01:33:10.981Z,7.80
2019-04-01T01:35:40.345Z,7.70
2019-04-01T01:38:09.744Z,7.70
2019-04-01T01:40:39.104Z,7.70
2019-04-01T01:43:08.488Z,7.70
2019-04-01T01:45:37.855Z,7.70
2019-04-01T01:48:07.224Z,7.60
2019-04-01T01:50:36.612Z,7.50
2019-04-01T01:53:06.029Z,7.40
2019-04-01T01:55:35.533Z,7.40
2019-04-01T01:58:04.906Z,7.40
2019-04-01T02:00:35.337Z,7.40
2019-04-01T02:03:04.616Z,7.40
2019-04-01T02:05:34.072Z,7.50
2019-04-01T02:08:03.474Z,7.40
2019-04-01T02:10:33.019Z,7.40
2019-04-01T02:13:04.822Z,7.30
2019-04-01T02:15:34.275Z,7.30
2019-04-01T02:18:03.739Z,7.20
2019-04-01T02:20:33.114Z,7.20
2019-04-01T02:23:02.479Z,7.10
2019-04-01T02:25:31.876Z,7.10
2019-04-01T02:28:01.233Z,7.20
2019-04-01T02:30:30.642Z,7.10
2019-04-01T02:32:59.995Z,6.90
2019-04-01T02:35:29.542Z,6.90
2019-04-01T02:37:58.935Z,6.80
2019-04-01T02:40:28.335Z,6.80
2019-04-01T02:42:57.963Z,6.80
2019-04-01T02:45:27.393Z,6.80
2019-04-01T02:47:56.786Z,6.80
2019-04-01T02:50:26.220Z,6.70
2019-04-01T02:52:55.623Z,6.80
2019-04-01T02:55:25.067Z,6.70
2019-04-01T02:57:54.462Z,6.70
2019-04-01T03:00:23.905Z,6.70
2019-04-01T03:02:53.280Z,6.70
2019-04-01T03:05:22.671Z,6.60
2019-04-01T03:07:52.044Z,6.50
2019-04-01T03:10:21.437Z,6.60
2019-04-01T03:12:50.835Z,6.60
2019-04-01T03:15:20.308Z,6.50
2019-04-01T03:17:49.669Z,6.50
2019-04-01T03:20:19.052Z,6.50
2019-04-01T03:22:48.426Z,6.50
2019-04-01T03:25:17.896Z,6.60
2019-04-01T03:27:47.273Z,6.60
2019-04-01T03:30:16.808Z,6.50
2019-04-01T03:32:46.263Z,6.60
2019-04-01T03:35:15.734Z,6.50
2019-04-01T03:37:45.261Z,6.50
2019-04-01T03:40:14.681Z,6.50
2019-04-01T03:42:44.162Z,6.50
2019-04-01T03:45:13.716Z,6.50
2019-04-01T03:47:43.162Z,6.40
2019-04-01T03:50:12.638Z,6.50
2019-04-01T03:52:41.937Z,6.40
2019-04-01T03:55:11.395Z,6.30
2019-04-01T03:57:40.760Z,6.20
2019-04-01T04:00:10.614Z,6.20
2019-04-01T04:02:40.042Z,6.10
2019-04-01T04:05:09.680Z,6.00
2019-04-01T04:07:39.155Z,5.90
2019-04-01T04:10:10.301Z,5.90
2019-04-01T04:12:39.685Z,5.80
2019-04-01T04:15:09.138Z,5.80
2019-04-01T04:17:38.520Z,5.80
2019-04-01T04:20:08.037Z,5.80
2019-04-01T04:22:37.470Z,5.80
2019-04-01T04:25:07.144Z,5.80
2019-04-01T04:27:36.517Z,5.70
2019-04-01T04:30:07.552Z,5.70
2019-04-01T04:32:36.925Z,5.80
2019-04-01T04:35:06.655Z,5.70
2019-04-01T04:37:36.110Z,5.70
2019-04-01T04:40:08.500Z,5.70
2019-04-01T04:42:37.803Z,5.70
2019-04-01T04:45:07.307Z,5.70
2019-04-01T04:47:36.708Z,5.70
2019-04-01T04:50:06.312Z,5.80
2019-04-01T04:52:35.722Z,5.80
2019-04-01T04:55:05.990Z,5.70
2019-04-01T04:57:35.874Z,5.70
2019-04-01T05:00:06.904Z,5.70
2019-04-01T05:02:36.397Z,5.70
2019-04-01T05:05:06.805Z,5.70
2019-04-01T05:07:37.023Z,5.70
2019-04-01T05:10:12.209Z,5.70
2019-04-01T05:12:42.518Z,5.70
2019-04-01T05:15:17.066Z,5.70
2019-04-01T05:17:46.530Z,5.60
2019-04-01T05:20:16.638Z,5.50
2019-04-01T05:22:46.380Z,5.50
2019-04-01T05:25:15.810Z,5.40
2019-04-01T05:27:46.793Z,5.40
2019-04-01T05:30:16.425Z,5.40
2019-04-01T05:32:47.514Z,5.40
2019-04-01T05:35:17.173Z,5.30
2019-04-01T05:37:46.728Z,5.40
2019-04-01T05:40:16.232Z,5.40
2019-04-01T05:42:45.882Z,5.40
2019-04-01T05:45:15.367Z,5.40
2019-04-01T05:47:52.674Z,5.30
2019-04-01T05:50:22.122Z,5.40
2019-04-01T05:52:51.560Z,5.30
2019-04-01T05:55:21.064Z,5.40
2019-04-01T05:57:50.439Z,5.50
2019-04-01T06:00:30.964Z,5.50
2019-04-01T06:03:00.344Z,5.60
2019-04-01T06:05:29.769Z,5.60
2019-04-01T06:07:59.095Z,5.70
2019-04-01T06:10:28.475Z,5.70
2019-04-01T06:12:58.006Z,5.70
2019-04-01T06:15:27.406Z,5.80
2019-04-01T06:17:56.915Z,5.70
2019-04-01T06:20:26.400Z,5.70
2019-04-01T06:22:55.789Z,5.80
2019-04-01T06:25:25.329Z,6.10
2019-04-01T06:27:54.929Z,6.20
2019-04-01T06:30:24.374Z,6.30
2019-04-01T06:32:53.857Z,6.40
2019-04-01T06:35:23.358Z,6.60
2019-04-01T06:37:52.792Z,6.80
2019-04-01T06:40:22.265Z,6.90
2019-04-01T06:42:51.636Z,6.90
2019-04-01T06:45:21.161Z,7.00
2019-04-01T06:47:50.661Z,7.00
2019-04-01T06:50:20.043Z,6.90
2019-04-01T06:52:49.479Z,7.10
2019-04-01T06:55:18.917Z,7.30
2019-04-01T06:57:48.420Z,7.30
2019-04-01T07:00:17.953Z,7.30
2019-04-01T07:02:47.735Z,7.50
2019-04-01T07:05:17.551Z,7.60
2019-04-01T07:07:47.211Z,7.60
2019-04-01T07:10:16.663Z,7.70
2019-04-01T07:12:46.189Z,7.70
2019-04-01T07:15:15.570Z,7.70
2019-04-01T07:17:45.029Z,7.70
2019-04-01T07:20:14.653Z,7.70
2019-04-01T07:22:45.782Z,7.90
2019-04-01T07:25:15.284Z,7.90
2019-04-01T07:27:44.765Z,8.10
2019-04-01T07:30:14.475Z,8.10
2019-04-01T07:32:43.913Z,8.40
2019-04-01T07:35:14.148Z,8.40
2019-04-01T07:37:43.657Z,8.50
2019-04-01T07:40:14.128Z,8.50
2019-04-01T07:42:49.402Z,8.70
2019-04-01T07:45:21.422Z,8.90
2019-04-01T07:47:51.738Z,8.90
2019-04-01T07:50:21.300Z,8.80
2019-04-01T07:52:50.665Z,8.80
2019-04-01T07:55:20.076Z,8.90
2019-04-01T07:57:51.128Z,9.10
2019-04-01T08:00:20.878Z,9.00
2019-04-01T08:02:51.934Z,9.10
2019-04-01T08:05:21.325Z,9.30
2019-04-01T08:07:50.686Z,9.40
2019-04-01T08:10:20.183Z,9.50
2019-04-01T08:12:49.920Z,9.70
2019-04-01T08:15:21.370Z,9.90
2019-04-01T08:17:50.502Z,10.10
2019-04-01T08:20:20.012Z,10.30
2019-04-01T08:22:49.783Z,10.40
2019-04-01T08:25:19.178Z,10.50
2019-04-01T08:27:48.553Z,10.60
2019-04-01T08:30:19.256Z,10.80
2019-04-01T08:32:49.099Z,11.10
2019-04-01T08:35:18.588Z,11.30
2019-04-01T08:37:48.078Z,11.50
2019-04-01T08:40:17.582Z,11.70
2019-04-01T08:42:48.976Z,11.80
2019-04-01T08:45:18.183Z,12.00
2019-04-01T08:47:47.573Z,12.20
2019-04-01T08:50:17.385Z,12.30
2019-04-01T08:52:46.826Z,12.30
2019-04-01T08:55:16.268Z,12.30
2019-04-01T08:57:45.656Z,12.30
2019-04-01T09:00:15.288Z,12.40
2019-04-01T09:02:45.325Z,12.50
2019-04-01T09:05:15.458Z,12.60
2019-04-01T09:07:45.730Z,12.70
2019-04-01T09:10:15.159Z,12.70
2019-04-01T09:12:44.900Z,12.80
2019-04-01T09:15:14.419Z,12.90
2019-04-01T09:17:43.808Z,13.00
2019-04-01T09:20:13.321Z,13.10
2019-04-01T09:22:42.729Z,13.20
2019-04-01T09:25:12.339Z,13.20
2019-04-01T09:27:41.707Z,13.30
2019-04-01T09:30:11.724Z,13.40
2019-04-01T09:32:41.161Z,13.50
2019-04-01T09:35:10.783Z,13.60
2019-04-01T09:37:40.196Z,13.60
2019-04-01T09:40:10.478Z,13.70
2019-04-01T09:42:39.874Z,13.90
2019-04-01T09:45:09.633Z,13.90
2019-04-01T09:47:39.102Z,13.80
2019-04-01T09:50:08.816Z,13.80
2019-04-01T09:52:38.215Z,13.80
2019-04-01T09:55:08.025Z,13.90
2019-04-01T09:57:37.407Z,14.10
2019-04-01T10:00:11.604Z,14.30
2019-04-01T10:02:41.020Z,14.40
2019-04-01T10:05:10.838Z,14.40
2019-04-01T10:07:40.346Z,14.60
2019-04-01T10:10:10.231Z,14.80
2019-04-01T10:12:39.615Z,14.80
2019-04-01T10:15:09.840Z,14.80
2019-04-01T10:17:39.443Z,14.90
2019-04-01T10:20:09.000Z,14.90
2019-04-01T10:22:38.384Z,14.90
2019-04-01T10:25:08.207Z,14.90
2019-04-01T10:27:37.656Z,15.20
2019-04-01T10:30:11.040Z,15.30
2019-04-01T10:32:40.425Z,15.50
2019-04-01T10:35:10.249Z,15.60
2019-04-01T10:37:39.586Z,15.70
2019-04-01T10:40:09.315Z,15.60
2019-04-01T10:42:38.775Z,15.80
2019-04-01T10:45:09.130Z,15.90
2019-04-01T10:47:38.689Z,15.80
2019-04-01T10:50:08.940Z,16.00
2019-04-01T10:52:38.441Z,16.20
2019-04-01T10:55:08.371Z,16.40
2019-04-01T10:57:38.059Z,16.70
2019-04-01T11:00:09.097Z,16.80
2019-04-01T11:02:38.627Z,17.00
2019-04-01T11:05:08.273Z,17.10
2019-04-01T11:07:37.883Z,17.40
2019-04-01T11:10:11.324Z,17.90
2019-04-01T11:12:39.594Z,18.80
2019-04-01T11:15:09.209Z,20.80
2019-04-01T11:17:38.530Z,23.20
2019-04-01T11:20:08.537Z,24.60
2019-04-01T11:22:37.929Z,25.20
2019-04-01T11:25:08.225Z,25.90
2019-04-01T11:27:37.674Z,25.50
2019-04-01T11:30:08.361Z,25.90
2019-04-01T11:32:38.023Z,26.40
2019-04-01T11:35:08.020Z,26.50
2019-04-01T11:37:37.399Z,26.80
2019-04-01T11:40:10.734Z,26.80
2019-04-01T11:42:40.339Z,27.80
2019-04-01T11:45:12.077Z,28.00
2019-04-01T11:47:41.663Z,27.90
2019-04-01T11:50:12.128Z,28.40
2019-04-01T11:52:41.578Z,29.50
2019-04-01T11:55:11.147Z,29.70
2019-04-01T11:57:41.054Z,29.40
2019-04-01T12:00:17.758Z,29.30
2019-04-01T12:02:47.214Z,28.40
2019-04-01T12:05:16.813Z,26.90
2019-04-01T12:07:46.279Z,26.30
2019-04-01T12:10:15.813Z,27.10
2019-04-01T12:12:45.724Z,28.10
2019-04-01T12:15:15.781Z,28.80
2019-04-01T12:17:45.242Z,29.60
2019-04-01T12:20:14.715Z,30.20
2019-04-01T12:22:45.938Z,30.40
2019-04-01T12:25:16.260Z,30.90
2019-04-01T12:27:46.292Z,30.70
2019-04-01T12:30:15.775Z,29.90
2019-04-01T12:32:45.811Z,29.90
2019-04-01T12:35:15.749Z,30.30
2019-04-01T12:37:45.951Z,31.10
2019-04-01T12:40:16.390Z,31.90
2019-04-01T12:42:46.553Z,32.00
2019-04-01T12:45:16.948Z,32.10
2019-04-01T12:47:46.900Z,32.80
2019-04-01T12:50:17.045Z,33.30
2019-04-01T12:52:47.071Z,32.50
2019-04-01T12:55:17.145Z,33.00
2019-04-01T12:57:48.513Z,32.60
2019-04-01T13:00:18.953Z,33.20
2019-04-01T13:02:49.609Z,33.10
2019-04-01T13:05:19.906Z,31.10
2019-04-01T13:07:50.036Z,31.40
2019-04-01T13:10:21.617Z,31.90
2019-04-01T13:12:54.120Z,31.90
2019-04-01T13:15:23.461Z,32.10
2019-04-01T13:17:53.426Z,32.30
2019-04-01T13:20:37.091Z,32.10
2019-04-01T13:22:55.105Z,32.00
2019-04-01T13:25:25.080Z,32.10
2019-04-01T13:27:55.052Z,32.30
2019-04-01T13:30:26.304Z,32.60
2019-04-01T13:32:56.548Z,33.00
2019-04-01T13:35:27.868Z,33.60
2019-04-01T13:37:58.036Z,33.40
2019-04-01T13:40:29.749Z,32.50
2019-04-01T13:42:59.717Z,32.90
2019-04-01T13:45:31.678Z,33.40
2019-04-01T13:48:01.422Z,33.80
2019-04-01T13:50:31.748Z,34.20
2019-04-01T13:53:02.567Z,34.10
2019-04-01T13:55:32.567Z,34.00
2019-04-01T13:58:02.562Z,33.80
2019-04-01T14:00:32.555Z,33.60
2019-04-01T14:03:02.444Z,33.80
2019-04-01T14:05:32.337Z,33.30
2019-04-01T14:08:05.743Z,33.80
2019-04-01T14:10:33.970Z,33.90
2019-04-01T14:13:04.007Z,33.60
2019-04-01T14:15:34.011Z,33.20
2019-04-01T14:18:04.033Z,33.10
2019-04-01T14:20:33.988Z,33.50
2019-04-01T14:23:04.061Z,33.80
2019-04-01T14:25:34.957Z,33.60
2019-04-01T14:28:06.869Z,33.90
2019-04-01T14:30:37.148Z,34.30
2019-04-01T14:33:07.109Z,34.90
2019-04-01T14:35:37.088Z,34.60
2019-04-01T14:38:07.122Z,34.80
2019-04-01T14:40:37.099Z,34.40
2019-04-01T14:43:07.064Z,34.40
2019-04-01T14:45:37.056Z,34.20
2019-04-01T14:48:08.668Z,34.00
2019-04-01T14:50:38.959Z,34.30
2019-04-01T14:53:10.076Z,34.80
2019-04-01T14:55:40.386Z,35.00
2019-04-01T14:58:10.355Z,34.70
2019-04-01T15:00:40.338Z,35.10
2019-04-01T15:03:10.207Z,34.70
2019-04-01T15:05:40.193Z,34.00
2019-04-01T15:08:10.150Z,34.00
2019-04-01T15:10:41.154Z,33.90
2019-04-01T15:13:11.423Z,34.40
2019-04-01T15:15:41.408Z,34.10
2019-04-01T15:18:11.448Z,33.50
2019-04-01T15:20:41.411Z,33.80
2019-04-01T15:23:11.411Z,33.70
2019-04-01T15:25:41.464Z,34.20
2019-04-01T15:28:11.530Z,33.90
2019-04-01T15:30:41.580Z,33.60
2019-04-01T15:33:11.675Z,33.30
2019-04-01T15:35:41.668Z,33.00
2019-04-01T15:38:11.642Z,32.50
2019-04-01T15:40:41.614Z,32.90
2019-04-01T15:43:12.126Z,33.20
2019-04-01T15:45:42.470Z,33.00
2019-04-01T15:48:12.574Z,32.80
2019-04-01T15:50:42.599Z,32.40
2019-04-01T15:53:12.662Z,31.90
2019-04-01T15:55:42.856Z,31.60
2019-04-01T15:58:12.826Z,31.50
2019-04-01T16:00:42.838Z,31.70
2019-04-01T16:03:12.796Z,31.40
2019-04-01T16:05:42.791Z,30.80
2019-04-01T16:08:12.763Z,31.20
2019-04-01T16:10:42.762Z,31.00
2019-04-01T16:13:14.166Z,31.60
2019-04-01T16:15:44.578Z,31.30
2019-04-01T16:18:14.539Z,31.00
2019-04-01T16:20:44.538Z,30.90
2019-04-01T16:23:14.520Z,30.70
2019-04-01T16:25:44.489Z,30.50
2019-04-01T16:28:14.447Z,30.40
2019-04-01T16:30:44.503Z,30.40
2019-04-01T16:33:14.512Z,30.60
2019-04-01T16:35:44.632Z,30.30
2019-04-01T16:38:16.760Z,29.70
2019-04-01T16:40:47.810Z,28.20
2019-04-01T16:43:17.340Z,26.90
2019-04-01T16:45:47.616Z,25.50
2019-04-01T16:48:16.919Z,24.10
2019-04-01T16:50:46.290Z,22.90
2019-04-01T16:53:15.704Z,22.10
2019-04-01T16:55:45.331Z,21.40
2019-04-01T16:58:14.734Z,21.00
2019-04-01T17:00:44.103Z,20.70
2019-04-01T17:03:13.792Z,20.40
2019-04-01T17:05:43.254Z,20.10
2019-04-01T17:08:12.727Z,19.90
2019-04-01T17:10:42.155Z,19.70
2019-04-01T17:13:11.563Z,19.50
2019-04-01T17:15:40.940Z,19.30
2019-04-01T17:18:10.379Z,19.10
2019-04-01T17:20:39.793Z,19.00
2019-04-01T17:23:09.157Z,18.90
2019-04-01T17:25:38.561Z,18.80
2019-04-01T17:28:07.946Z,18.60
2019-04-01T17:30:37.349Z,18.60
2019-04-01T17:33:08.347Z,18.50
2019-04-01T17:35:37.889Z,18.40
2019-04-01T17:38:07.533Z,18.30
2019-04-01T17:40:37.002Z,18.20
2019-04-01T17:43:09.218Z,18.10
2019-04-01T17:45:40.333Z,17.90
2019-04-01T17:48:10.197Z,17.80
2019-04-01T17:50:39.669Z,17.70
2019-04-01T17:53:11.222Z,17.50
2019-04-01T17:55:40.692Z,17.30
2019-04-01T17:58:10.091Z,17.20
2019-04-01T18:00:42.354Z,17.10
2019-04-01T18:03:11.859Z,17.00
2019-04-01T18:05:41.261Z,16.80
2019-04-01T18:08:10.626Z,16.80
2019-04-01T18:10:40.035Z,16.70
2019-04-01T18:13:09.354Z,16.60
2019-04-01T18:15:38.812Z,16.50
2019-04-01T18:18:10.059Z,16.40
2019-04-01T18:20:39.375Z,16.30
2019-04-01T18:23:08.778Z,16.20
2019-04-01T18:25:40.214Z,16.10
2019-04-01T18:28:09.897Z,16.00
2019-04-01T18:30:39.270Z,16.00
2019-04-01T18:33:08.678Z,15.90
2019-04-01T18:35:38.072Z,15.90
2019-04-01T18:38:07.539Z,15.80
2019-04-01T18:40:36.933Z,15.70
2019-04-01T18:43:06.320Z,15.70
2019-04-01T18:45:35.708Z,15.50
2019-04-01T18:48:05.160Z,15.50
2019-04-01T18:50:34.556Z,15.50
2019-04-01T18:53:03.955Z,15.40
2019-04-01T18:55:33.529Z,15.30
2019-04-01T18:58:02.936Z,15.20
2019-04-01T19:00:32.437Z,15.00
2019-04-01T19:03:01.915Z,14.90
2019-04-01T19:05:31.292Z,14.80
2019-04-01T19:08:00.748Z,14.70
2019-04-01T19:10:30.136Z,14.60
2019-04-01T19:13:05.812Z,14.60
2019-04-01T19:15:31.337Z,14.50
2019-04-01T19:18:01.400Z,14.50
2019-04-01T19:20:30.848Z,14.40
2019-04-01T19:23:02.017Z,14.30
2019-04-01T19:25:31.219Z,14.20
2019-04-01T19:28:00.614Z,14.10
2019-04-01T19:30:30.224Z,14.00
2019-04-01T19:32:59.622Z,14.00
2019-04-01T19:35:29.048Z,14.00
2019-04-01T19:37:58.440Z,14.00
2019-04-01T19:40:27.815Z,13.90
2019-04-01T19:42:57.216Z,13.80
2019-04-01T19:45:26.708Z,13.70
2019-04-01T19:47:57.363Z,13.70
2019-04-01T19:50:26.890Z,13.50
2019-04-01T19:52:56.344Z,13.40
2019-04-01T19:55:25.807Z,13.40
2019-04-01T19:57:56.134Z,13.30
2019-04-01T20:00:28.259Z,13.30
2019-04-01T20:02:56.897Z,13.30
2019-04-01T20:05:26.364Z,13.30
2019-04-01T20:07:55.732Z,13.20
2019-04-01T20:10:28.156Z,13.10
2019-04-01T20:12:56.293Z,13.00
2019-04-01T20:15:25.687Z,12.90
2019-04-01T20:17:55.170Z,12.90
2019-04-01T20:20:24.619Z,12.90
2019-04-01T20:22:54.452Z,12.80
2019-04-01T20:25:23.965Z,12.80
2019-04-01T20:27:53.480Z,12.70
2019-04-01T20:30:22.942Z,12.70
2019-04-01T20:32:52.371Z,12.70
2019-04-01T20:35:23.656Z,12.70
2019-04-01T20:37:52.993Z,12.70
2019-04-01T20:40:24.090Z,12.60
2019-04-01T20:42:53.650Z,12.60
2019-04-01T20:45:23.063Z,12.50
2019-04-01T20:47:52.537Z,12.40
2019-04-01T20:50:22.362Z,12.40
2019-04-01T20:52:51.828Z,12.40
2019-04-01T20:55:21.291Z,12.30
2019-04-01T20:57:50.701Z,12.30
2019-04-01T21:00:20.633Z,12.20
2019-04-01T21:02:50.110Z,12.20
2019-04-01T21:05:19.630Z,12.20
2019-04-01T21:07:49.206Z,12.10
2019-04-01T21:10:18.732Z,12.10
2019-04-01T21:12:48.129Z,12.00
2019-04-01T21:15:17.617Z,12.00
2019-04-01T21:17:46.991Z,11.90
2019-04-01T21:20:16.439Z,11.90
2019-04-01T21:22:45.864Z,11.90
2019-04-01T21:25:15.484Z,11.80
2019-04-01T21:27:44.874Z,11.70
2019-04-01T21:30:14.606Z,11.60
2019-04-01T21:32:44.355Z,11.50
2019-04-01T21:35:14.697Z,11.50
2019-04-01T21:37:44.065Z,11.60
2019-04-01T21:40:14.709Z,11.60
2019-04-01T21:42:44.084Z,11.50
2019-04-01T21:45:13.598Z,11.50
2019-04-01T21:47:42.994Z,11.50
2019-04-01T21:50:12.603Z,11.50
2019-04-01T21:52:42.010Z,11.50
2019-04-01T21:55:12.438Z,11.40
2019-04-01T21:57:41.843Z,11.40
2019-04-01T22:00:14.716Z,11.40
2019-04-01T22:02:44.526Z,11.30
2019-04-01T22:05:14.147Z,11.20
2019-04-01T22:07:43.552Z,11.20
2019-04-01T22:10:13.773Z,11.10
2019-04-01T22:12:43.139Z,11.00
2019-04-01T22:15:12.713Z,11.00
2019-04-01T22:17:42.110Z,10.90
2019-04-01T22:20:11.681Z,11.00
2019-04-01T22:22:41.134Z,11.00
2019-04-01T22:25:10.699Z,10.90
2019-04-01T22:27:40.065Z,10.90
2019-04-01T22:30:09.910Z,10.90
2019-04-01T22:32:39.279Z,10.80
2019-04-01T22:35:08.794Z,10.80
2019-04-01T22:37:38.253Z,10.80
2019-04-01T22:40:08.463Z,10.70
2019-04-01T22:42:37.878Z,10.70
2019-04-01T22:45:07.608Z,10.70
2019-04-01T22:47:37.004Z,10.70
2019-04-01T22:50:07.978Z,10.60
2019-04-01T22:52:37.379Z,10.60
2019-04-01T22:55:07.001Z,10.60
2019-04-01T22:57:36.386Z,10.60
2019-04-01T23:00:06.427Z,10.50
2019-04-01T23:02:35.895Z,10.40
2019-04-01T23:05:07.292Z,10.40
2019-04-01T23:07:37.381Z,10.40
2019-04-01T23:10:07.959Z,10.30
2019-04-01T23:12:38.006Z,10.20
2019-04-01T23:15:07.749Z,10.20
2019-04-01T23:17:38.182Z,10.20
2019-04-01T23:20:08.249Z,10.10
2019-04-01T23:22:37.652Z,10.20
2019-04-01T23:25:07.399Z,10.20
2019-04-01T23:27:36.791Z,10.20
2019-04-01T23:30:09.538Z,10.20
2019-04-01T23:32:41.706Z,10.20
2019-04-01T23:35:12.371Z,10.20
2019-04-01T23:37:42.115Z,10.10
2019-04-01T23:40:11.982Z,10.10
2019-04-01T23:42:41.390Z,10.00
2019-04-01T23:45:11.632Z,10.00
2019-04-01T23:47:41.010Z,9.90
2019-04-01T23:50:10.552Z,9.90
2019-04-01T23:52:39.993Z,9.90
2019-04-01T23:55:10.045Z,9.90
2019-04-01T23:57:39.412Z,9.90
